Time;durP1;ratioP1;P1;durP2;ratioP2;P2;SDS_P1;SDS_P2;PMS_P1;PMS_P2;Temp;Humidity;BMP_temperature;BMP_pressure;BME280_temperature;BME280_humidity;BME280_pressure;Samples;Min_cycle;Max_cycle;Signal;HPM_P1;HPM_P2
2022/01/06 00:00:41;;;;;;;27.25;7.82;;;;;;;1.66;100.00;101385.25;6436746;22;20020;-80
2022/01/06 00:03:12;;;;;;;18.65;4.97;;;;;;;1.63;100.00;101385.16;6434805;23;20017;-80
2022/01/06 00:08:57;;;;;;;23.42;7.72;;;;;;;1.53;100.00;101390.78;6397990;23;20025;-79
2022/01/06 00:23:57;;;;;;;28.42;7.25;;;;;;;1.52;100.00;101400.22;6374696;23;20089;-79
2022/01/06 00:26:28;;;;;;;26.40;7.03;;;;;;;1.44;100.00;101406.78;6372408;23;20936;-78
2022/01/06 00:28:59;;;;;;;34.70;6.20;;;;;;;1.42;100.00;101405.88;6371981;23;20089;-77
2022/01/06 00:31:32;;;;;;;27.83;7.40;;;;;;;1.36;100.00;101409.06;6344652;23;20431;-80
2022/01/06 00:34:14;;;;;;;;;;;;;;;1.33;100.00;101411.53;6424499;23;20111;-80
2022/01/06 00:37:14;;;;;;;33.22;6.25;;;;;;;1.27;100.00;101419.91;6433524;23;19912;-82
2022/01/06 00:40:00;;;;;;;29.30;7.43;;;;;;;1.10;100.00;101408.16;6434466;23;20497;-80
2022/01/06 00:42:42;;;;;;;25.83;6.13;;;;;;;1.15;100.00;101419.47;6433370;23;20068;-80
2022/01/06 00:45:13;;;;;;;36.25;7.68;;;;;;;1.16;100.00;101428.94;6433924;23;20001;-80
2022/01/06 00:47:45;;;;;;;32.47;6.87;;;;;;;1.16;100.00;101428.94;6433542;23;20064;-81
2022/01/06 00:50:16;;;;;;;31.47;6.90;;;;;;;1.13;100.00;101430.50;6433911;23;20037;-79
2022/01/06 00:52:47;;;;;;;32.73;6.63;;;;;;;1.16;100.00;101434.06;6433752;23;20033;-81
2022/01/06 00:55:19;;;;;;;29.63;6.30;;;;;;;1.11;100.00;101437.28;6433318;23;20026;-79
2022/01/06 00:57:50;;;;;;;33.90;7.67;;;;;;;1.10;100.00;101433.84;6433354;23;20327;-81
2022/01/06 01:00:23;;;;;;;29.80;6.10;;;;;;;1.12;100.00;101432.19;6433473;23;20005;-78
2022/01/06 01:02:54;;;;;;;;;;;;;;;1.06;100.00;101430.28;6433977;23;20008;-80
2022/01/06 01:05:25;;;;;;;23.90;5.82;;;;;;;1.04;100.00;101428.47;6433385;23;19908;-80
2022/01/06 01:07:57;;;;;;;22.10;6.30;;;;;;;0.99;100.00;101428.31;6432896;23;20013;-79
2022/01/06 01:10:28;;;;;;;27.47;6.23;;;;;;;0.94;100.00;101431.53;6433507;23;20075;-80
2022/01/06 01:13:00;;;;;;;45.03;7.87;;;;;;;0.88;100.00;101434.75;6433566;23;20012;-80
2022/01/06 01:15:34;;;;;;;23.60;6.53;;;;;;;0.81;100.00;101437.91;6433904;23;20009;-80
2022/01/06 01:18:08;;;;;;;30.05;7.20;;;;;;;0.80;100.00;101431.88;6433792;23;20001;-80
2022/01/06 01:20:39;;;;;;;33.03;6.22;;;;;;;0.81;100.00;101430.22;6433560;23;20418;-80
2022/01/06 01:23:11;;;;;;;23.83;6.00;;;;;;;0.75;100.00;101429.97;6432900;23;20016;-79
2022/01/06 01:25:43;;;;;;;29.37;6.83;;;;;;;0.71;100.00;101439.25;6433202;23;20005;-81
2022/01/06 01:28:15;;;;;;;23.85;6.18;;;;;;;0.70;100.00;101440.94;6434264;23;20765;-82
2022/01/06 01:31:11;;;;;;;28.17;6.10;;;;;;;0.71;100.00;101440.13;6433962;23;20060;-79
2022/01/06 01:33:43;;;;;;;32.60;6.13;;;;;;;0.70;100.00;101443.50;6432687;23;20040;-80
2022/01/06 01:36:15;;;;;;;26.63;5.97;;;;;;;0.64;100.00;101448.38;6406688;23;20019;-79
2022/01/06 01:38:46;;;;;;;27.67;6.07;;;;;;;0.59;100.00;101454.16;6434100;23;20307;-78
2022/01/06 01:41:18;;;;;;;30.93;6.00;;;;;;;0.52;100.00;101447.94;6435472;23;20013;-79
2022/01/06 01:43:50;;;;;;;35.83;6.73;;;;;;;0.52;100.00;101450.50;6434750;23;20004;-76
2022/01/06 01:46:29;;;;;;;35.10;6.30;;;;;;;0.46;100.00;101457.94;6436241;23;20414;-80
2022/01/06 01:52:06;;;;;;;32.97;6.53;;;;;;;0.42;100.00;101467.22;6370039;23;20391;-80
2022/01/06 01:54:38;;;;;;;34.90;7.33;;;;;;;0.43;100.00;101478.34;6370237;23;20016;-79
2022/01/06 01:57:09;;;;;;;41.40;6.77;;;;;;;0.42;100.00;101480.03;6369806;23;20388;-78
2022/01/06 01:59:41;;;;;;;31.73;7.07;;;;;;;0.37;100.00;101484.09;6370037;23;20218;-81
2022/01/06 02:02:14;;;;;;;36.43;6.67;;;;;;;0.36;100.00;101482.34;6370892;23;20012;-80
2022/01/06 02:04:47;;;;;;;22.85;5.55;;;;;;;0.36;100.00;101483.22;6370860;23;20071;-81
2022/01/06 02:07:19;;;;;;;31.45;6.30;;;;;;;0.41;100.00;101487.69;6371207;23;20639;-79
2022/01/06 02:09:50;;;;;;;34.70;6.83;;;;;;;0.39;100.00;101491.84;6370842;23;20053;-78
2022/01/06 02:12:32;;;;;;;31.30;6.50;;;;;;;0.42;100.00;101495.44;6371079;23;20428;-81
2022/01/06 02:15:06;;;;;;;23.87;6.47;;;;;;;0.43;100.00;101489.47;6370225;23;20145;-79
2022/01/06 02:17:38;;;;;;;30.52;6.50;;;;;;;0.45;100.00;101497.22;6370775;23;20730;-80
2022/01/06 02:20:15;;;;;;;28.85;7.68;;;;;;;0.44;100.00;101498.06;6371346;23;20009;-80
2022/01/06 02:22:49;;;;;;;29.98;7.22;;;;;;;0.36;100.00;101498.63;6370857;23;20088;-78
2022/01/06 02:25:29;;;;;;;29.95;5.47;;;;;;;0.26;100.00;101501.63;6384712;23;20342;-79
2022/01/06 02:28:02;;;;;;;33.78;5.70;;;;;;;0.25;100.00;101504.13;6435618;23;20020;-79
2022/01/06 02:30:36;;;;;;;39.40;7.25;;;;;;;0.26;100.00;101501.63;6436042;23;20481;-80
2022/01/06 02:33:08;;;;;;;32.55;6.68;;;;;;;0.18;100.00;101505.56;6435897;23;20336;-80
2022/01/06 02:35:39;;;;;;;27.80;5.47;;;;;;;0.15;100.00;101502.88;6435245;23;20021;-79
2022/01/06 02:38:11;;;;;;;24.67;6.87;;;;;;;0.01;100.00;101501.44;6432897;23;20485;-78
2022/01/06 02:40:44;;;;;;;31.25;7.15;;;;;;;0.03;100.00;101513.47;6435923;23;20076;-79
2022/01/06 02:43:18;;;;;;;33.78;6.88;;;;;;;-0.05;100.00;101507.16;6435962;23;20051;-79
2022/01/06 02:45:50;;;;;;;24.40;6.05;;;;;;;-0.01;100.00;101507.34;6439462;23;20287;-77
2022/01/06 02:48:21;;;;;;;34.83;5.87;;;;;;;-0.06;100.00;101503.72;6435716;23;20013;-81
2022/01/06 02:50:53;;;;;;;41.57;9.13;;;;;;;0.05;100.00;101503.28;6436106;23;20011;-80
2022/01/06 02:53:24;;;;;;;38.47;7.53;;;;;;;0.09;100.00;101500.06;6443804;23;20005;-77
2022/01/06 02:55:55;;;;;;;38.73;7.37;;;;;;;0.11;100.00;101503.56;6441339;23;20095;-75
2022/01/06 02:58:27;;;;;;;34.17;7.60;;;;;;;0.19;100.00;101504.75;6433061;23;20017;-79
2022/01/06 03:01:01;;;;;;;38.60;7.50;;;;;;;0.26;100.00;101506.75;6436155;23;20062;-80
2022/01/06 03:03:33;;;;;;;31.33;6.85;;;;;;;0.25;100.00;101504.13;6436061;23;20005;-78
2022/01/06 03:06:05;;;;;;;34.42;8.35;;;;;;;0.29;100.00;101506.00;6437074;23;20016;-81
2022/01/06 03:08:37;;;;;;;43.40;7.90;;;;;;;0.26;100.00;101509.31;6439704;23;20009;-79
2022/01/06 03:11:09;;;;;;;37.63;8.35;;;;;;;0.26;100.00;101506.75;6440606;23;20440;-79
2022/01/06 03:13:41;;;;;;;31.42;7.78;;;;;;;0.29;100.00;101509.44;6436333;23;20445;-80
2022/01/06 03:16:12;;;;;;;34.97;6.87;;;;;;;0.30;100.00;101508.63;6436829;23;20013;-80
2022/01/06 03:18:43;;;;;;;31.50;7.27;;;;;;;0.33;100.00;101516.44;6435761;23;20028;-78
2022/01/06 03:21:15;;;;;;;33.53;6.37;;;;;;;0.29;100.00;101527.41;6435889;23;20029;-80
2022/01/06 03:23:47;;;;;;;31.90;7.57;;;;;;;0.25;100.00;101524.66;6434636;23;20016;-77
2022/01/06 03:26:18;;;;;;;35.28;6.82;;;;;;;0.23;100.00;101524.59;6436719;23;20009;-81
2022/01/06 03:28:50;;;;;;;33.00;6.77;;;;;;;0.30;100.00;101525.69;6435484;23;20080;-80
2022/01/06 03:31:21;;;;;;;34.33;7.20;;;;;;;0.28;100.00;101525.63;6435512;23;20017;-76
2022/01/06 03:33:53;;;;;;;26.53;6.73;;;;;;;0.19;100.00;101535.50;6435697;23;20029;-79
2022/01/06 03:36:24;;;;;;;31.43;6.17;;;;;;;0.20;100.00;101536.41;6435605;23;20004;-78
2022/01/06 03:38:55;;;;;;;33.10;5.90;;;;;;;0.20;100.00;101542.41;6435480;23;20301;-74
2022/01/06 03:41:27;;;;;;;31.33;5.37;;;;;;;0.13;100.00;101541.28;6435534;23;20005;-80
2022/01/06 03:43:58;;;;;;;30.80;6.00;;;;;;;0.11;100.00;101542.91;6434411;23;20049;-80
2022/01/06 03:46:29;;;;;;;27.77;5.47;;;;;;;0.23;100.00;101544.22;6434936;23;20663;-76
2022/01/06 03:49:01;;;;;;;28.93;5.87;;;;;;;0.30;100.00;101554.78;6435192;23;20031;-80
2022/01/06 03:51:33;;;;;;;27.27;6.40;;;;;;;0.38;100.00;101549.97;6434986;23;20092;-78
2022/01/06 03:54:05;;;;;;;38.90;6.45;;;;;;;0.43;100.00;101542.47;6434514;23;20005;-80
2022/01/06 03:56:36;;;;;;;28.13;6.50;;;;;;;0.39;100.00;101549.16;6437021;23;20441;-79
2022/01/06 03:59:08;;;;;;;28.97;5.40;;;;;;;0.39;100.00;101549.16;6434892;23;20095;-79
2022/01/06 04:01:39;;;;;;;30.87;6.50;;;;;;;0.38;100.00;101537.16;6435047;23;20028;-79
2022/01/06 04:04:12;;;;;;;34.67;6.00;;;;;;;0.34;100.00;101546.41;6434589;23;20035;-76
2022/01/06 04:06:44;;;;;;;37.33;5.72;;;;;;;0.39;100.00;101530.31;6435200;23;20009;-78
2022/01/06 04:09:15;;;;;;;31.30;6.27;;;;;;;0.42;100.00;101536.47;6435145;23;20012;-79
2022/01/06 04:11:47;;;;;;;32.23;5.80;;;;;;;0.42;100.00;101531.34;6435463;23;20005;-79
2022/01/06 04:14:18;;;;;;;24.53;6.10;;;;;;;0.46;100.00;101532.34;6435169;23;20005;-79
2022/01/06 04:16:57;;;;;;;35.57;5.90;;;;;;;0.46;100.00;101540.91;6435852;23;20063;-80
2022/01/06 04:19:28;;;;;;;23.63;5.25;;;;;;;0.46;100.00;101542.59;6435015;23;20005;-78
2022/01/06 04:22:00;;;;;;;29.83;5.07;;;;;;;0.44;100.00;101544.22;6434805;23;20055;-79
2022/01/06 04:24:32;;;;;;;32.17;5.87;;;;;;;0.42;100.00;101551.88;6434119;23;20015;-77
2022/01/06 04:27:03;;;;;;;27.33;6.07;;;;;;;0.45;100.00;101564.81;6433335;23;20423;-80
2022/01/06 04:29:35;;;;;;;27.53;6.13;;;;;;;0.47;100.00;101570.88;6434222;23;20074;-79
2022/01/06 04:32:06;;;;;;;30.87;6.23;;;;;;;0.47;100.00;101570.00;6435052;23;20080;-80
2022/01/06 04:34:38;;;;;;;27.53;6.53;;;;;;;0.48;100.00;101566.63;6434307;23;20009;-80
2022/01/06 04:39:46;;;;;;;32.42;7.07;;;;;;;0.46;100.00;101558.84;6435479;23;20032;-80
2022/01/06 04:42:17;;;;;;;28.50;5.90;;;;;;;0.34;100.00;101564.38;6439060;23;20001;-77
2022/01/06 04:44:49;;;;;;;33.27;7.63;;;;;;;0.24;100.00;101571.59;6440770;23;20008;-79
2022/01/06 04:47:23;;;;;;;31.27;5.70;;;;;;;0.26;100.00;101573.44;6434297;23;20028;-80
2022/01/06 04:49:55;;;;;;;25.70;5.28;;;;;;;0.29;100.00;101581.25;6434775;23;20071;-80
2022/01/06 04:52:26;;;;;;;33.27;5.80;;;;;;;0.24;100.00;101585.31;6435073;23;20013;-80
2022/01/06 04:54:58;;;;;;;26.80;6.00;;;;;;;0.17;100.00;101580.72;6434719;23;20430;-80
2022/01/06 04:57:29;;;;;;;25.97;5.33;;;;;;;0.14;100.00;101588.28;6434942;23;20071;-80
2022/01/06 05:00:00;;;;;;;21.67;5.30;;;;;;;0.12;100.00;101582.22;6435031;23;20012;-80
2022/01/06 05:02:32;;;;;;;30.80;6.33;;;;;;;0.16;100.00;101587.56;6408449;23;20009;-80
2022/01/06 05:05:04;;;;;;;22.67;4.57;;;;;;;0.10;100.00;101591.56;6434470;23;20001;-78
2022/01/06 05:07:35;;;;;;;31.73;5.30;;;;;;;-0.07;100.00;101588.25;6434799;23;20314;-75
2022/01/06 05:10:08;;;;;;;28.17;6.30;;;;;;;-0.18;100.00;101590.31;6434865;23;20318;-78
2022/01/06 05:12:44;;;;;;;32.95;5.82;;;;;;;-0.16;100.00;101601.53;6434948;23;20012;-77
2022/01/06 05:15:15;;;;;;;23.88;5.60;;;;;;;-0.28;100.00;101601.00;6434262;23;20020;-80
2022/01/06 05:17:46;;;;;;;29.23;5.20;;;;;;;-0.38;100.00;101609.94;6434684;23;20009;-80
2022/01/06 05:20:24;;;;;;;39.47;5.90;;;;;;;-0.46;100.00;101608.72;6434866;23;20012;-73
2022/01/06 05:22:56;;;;;;;29.02;7.15;;;;;;;-0.52;100.00;101604.19;6434198;23;20447;-79
2022/01/06 05:25:30;;;;;;;32.45;5.85;;;;;;;-0.50;100.00;101605.16;6434703;23;20008;-80
2022/01/06 05:28:02;;;;;;;26.08;5.55;;;;;;;-0.58;100.00;101609.03;6434716;23;20009;-78
2022/01/06 05:30:33;;;;;;;29.83;6.68;;;;;;;-0.63;100.00;101607.94;6435069;23;20008;-78
2022/01/06 05:33:05;;;;;;;26.73;5.80;;;;;;;-0.68;100.00;101614.53;6434743;23;20009;-78
2022/01/06 05:35:36;;;;;;;28.00;5.37;;;;;;;-0.74;100.00;101618.59;6436650;23;20092;-80
2022/01/06 05:38:08;;;;;;;36.97;6.00;;;;;;;-0.82;100.00;101619.00;6436770;23;20451;-76
2022/01/06 05:40:39;;;;;;;26.03;5.50;;;;;;;-0.90;100.00;101623.78;6436882;23;20394;-78
2022/01/06 05:43:11;;;;;;;29.80;5.43;;;;;;;-0.93;100.00;101631.31;6436409;23;20111;-79
2022/01/06 05:45:42;;;;;;;28.13;5.53;;;;;;;-0.99;100.00;101626.78;6435629;23;20331;-79
2022/01/06 05:48:13;;;;;;;27.50;5.30;;;;;;;-1.04;100.00;101633.34;6435820;23;20490;-78
2022/01/06 05:50:51;;;;;;;28.53;5.93;;;;;;;-1.02;100.00;101634.31;6437381;23;20039;-76
2022/01/06 05:53:22;;;;;;;28.25;5.68;;;;;;;-1.02;100.00;101630.88;6438216;23;20441;-78
2022/01/06 05:55:53;;;;;;;31.27;7.07;;;;;;;-1.01;100.00;101636.06;6439929;23;20009;-75
2022/01/06 05:58:25;;;;;;;34.57;6.57;;;;;;;-1.02;100.00;101636.84;6440323;23;20005;-78
2022/01/06 06:00:56;;;;;;;24.30;6.27;;;;;;;-1.08;100.00;101640.81;6437791;23;20411;-78
2022/01/06 06:03:28;;;;;;;29.07;7.60;;;;;;;-1.10;100.00;101639.03;6440632;23;20005;-80
2022/01/06 06:05:59;;;;;;;28.50;6.73;;;;;;;-1.11;100.00;101649.25;6409619;23;20055;-80
2022/01/06 06:08:31;;;;;;;31.17;6.37;;;;;;;-1.13;100.00;101650.81;6436542;23;20013;-79
2022/01/06 06:11:02;;;;;;;33.53;6.03;;;;;;;-1.18;100.00;101655.72;6435852;23;20312;-77
2022/01/06 06:13:34;;;;;;;27.67;7.07;;;;;;;-1.10;100.00;101659.50;6436300;23;20036;-76
2022/01/06 06:16:05;;;;;;;31.37;7.60;;;;;;;-1.08;100.00;101656.16;6434923;23;20024;-76
2022/01/06 06:18:37;;;;;;;28.07;6.80;;;;;;;-1.05;100.00;101657.19;6435751;23;20084;-76
2022/01/06 06:21:08;;;;;;;27.27;6.37;;;;;;;-0.99;100.00;101659.19;6446565;23;20298;-78
2022/01/06 06:23:42;;;;;;;28.10;6.00;;;;;;;-0.99;100.00;101666.84;6447511;23;20152;-75
2022/01/06 06:26:13;;;;;;;36.13;7.97;;;;;;;-0.97;100.00;101662.69;6444675;23;20438;-77
2022/01/06 06:28:44;;;;;;;33.07;7.53;;;;;;;-0.97;100.00;101662.69;6443544;23;20068;-79
2022/01/06 06:31:16;;;;;;;34.17;6.53;;;;;;;-0.98;100.00;101666.06;6442813;23;20065;-79
2022/01/06 06:33:47;;;;;;;33.80;7.23;;;;;;;-1.05;100.00;101669.13;6447987;23;20008;-81
2022/01/06 06:36:18;;;;;;;26.80;6.67;;;;;;;-1.11;100.00;101682.50;6439452;23;20009;-80
2022/01/06 06:38:50;;;;;;;31.50;8.13;;;;;;;-1.19;100.00;101677.00;6436550;23;20447;-80
2022/01/06 06:41:21;;;;;;;32.63;7.03;;;;;;;-1.19;100.00;101678.66;6443875;23;20016;-78
2022/01/06 06:43:52;;;;;;;25.83;6.63;;;;;;;-1.22;100.00;101674.28;6444624;23;20008;-77
2022/01/06 06:46:24;;;;;;;37.43;7.77;;;;;;;-1.21;100.00;101676.03;6445668;23;20012;-78
2022/01/06 06:48:55;;;;;;;27.47;6.00;;;;;;;-1.28;100.00;101684.22;6445276;23;20001;-80
2022/01/06 06:51:26;;;;;;;36.03;7.70;;;;;;;-1.34;100.00;101689.00;6444877;23;20020;-76
2022/01/06 06:53:58;;;;;;;29.50;5.87;;;;;;;-1.39;100.00;101691.34;6417850;23;20337;-78
2022/01/06 06:56:29;;;;;;;46.23;8.47;;;;;;;-1.39;100.00;101690.47;6444622;23;20084;-75
2022/01/06 06:59:00;;;;;;;31.70;5.67;;;;;;;-1.33;100.00;101699.31;6444601;23;20012;-76
2022/01/06 07:01:32;;;;;;;31.07;6.17;;;;;;;-1.36;100.00;101706.84;6445243;23;20004;-76
2022/01/06 07:04:03;;;;;;;35.63;9.43;;;;;;;-1.44;100.00;101705.56;6445478;23;20135;-76
2022/01/06 07:06:35;;;;;;;25.37;7.40;;;;;;;-1.25;100.00;101703.97;6451758;23;20016;-79
2022/01/06 07:09:06;;;;;;;30.23;8.63;;;;;;;-1.29;100.00;101708.03;6449343;23;20056;-78
2022/01/06 07:11:37;;;;;;;29.47;7.17;;;;;;;-1.33;100.00;101712.13;6451013;23;20008;-78
2022/01/06 07:14:09;;;;;;;29.20;7.30;;;;;;;-1.40;100.00;101712.63;6453611;23;20024;-80
2022/01/06 07:16:40;;;;;;;30.43;6.90;;;;;;;-1.39;100.00;101713.50;6451411;23;20009;-79
2022/01/06 07:19:11;;;;;;;34.27;8.23;;;;;;;-1.45;100.00;101726.81;6452392;23;20013;-79
2022/01/06 07:21:43;;;;;;;33.93;7.23;;;;;;;-1.50;100.00;101728.28;6454709;23;20009;-79
2022/01/06 07:24:14;;;;;;;33.33;7.67;;;;;;;-1.55;100.00;101728.03;6453684;23;20005;-80
2022/01/06 07:26:46;;;;;;;35.27;7.53;;;;;;;-1.60;100.00;101737.16;6456133;23;20012;-79
2022/01/06 07:29:20;;;;;;;24.60;7.57;;;;;;;-1.56;100.00;101735.63;6460306;23;20008;-80
2022/01/06 07:31:52;;;;;;;27.85;7.22;;;;;;;-1.57;100.00;101734.75;6457179;23;20024;-79
2022/01/06 07:34:23;;;;;;;25.53;6.43;;;;;;;-1.63;100.00;101739.53;6455039;23;19997;-79
2022/01/06 07:36:55;;;;;;;36.47;8.00;;;;;;;-1.66;100.00;101734.25;6455844;23;20039;-79
2022/01/06 07:39:26;;;;;;;39.57;8.13;;;;;;;-1.71;100.00;101741.69;6444430;23;20020;-76
2022/01/06 07:48:26;;;;;;;38.88;7.50;;;;;;;-1.63;100.00;101747.22;6435464;23;20256;-78
2022/01/06 07:50:57;;;;;;;30.10;7.18;;;;;;;-1.55;100.00;101752.72;6435160;23;20036;-79
2022/01/06 07:53:34;;;;;;;29.40;7.77;;;;;;;-1.53;100.00;101749.47;6438386;23;20028;-78
2022/01/06 07:56:06;;;;;;;34.42;9.32;;;;;;;-1.48;100.00;101742.03;6436806;23;20331;-78
2022/01/06 07:58:37;;;;;;;42.90;8.57;;;;;;;-1.47;100.00;101749.75;6436853;23;20012;-79
2022/01/06 08:01:09;;;;;;;34.17;8.80;;;;;;;-1.45;100.00;101749.84;6436598;23;20101;-79
2022/01/06 08:03:42;;;;;;;28.52;8.57;;;;;;;-1.35;100.00;101754.66;6436423;23;20058;-80
2022/01/06 08:06:14;;;;;;;37.15;9.23;;;;;;;-1.29;100.00;101754.97;6435982;23;20008;-80
2022/01/06 08:08:46;;;;;;;26.40;9.20;;;;;;;-1.29;100.00;101756.63;6434655;23;20009;-81
2022/01/06 08:11:17;;;;;;;31.93;10.63;;;;;;;-1.22;100.00;101756.16;6434284;23;20092;-79
2022/01/06 08:13:49;;;;;;;32.97;11.73;;;;;;;-1.17;100.00;101759.81;6434737;23;20008;-77
2022/01/06 08:16:20;;;;;;;38.83;12.53;;;;;;;-1.08;100.00;101758.53;6434310;23;20000;-81
2022/01/06 08:18:51;;;;;;;36.83;12.60;;;;;;;-1.05;100.00;101761.22;6435154;23;20080;-80
2022/01/06 08:21:56;;;;;;;46.10;13.83;;;;;;;-1.03;100.00;101768.19;6435562;23;20009;-81
2022/01/06 08:24:27;;;;;;;52.10;15.52;;;;;;;-0.97;100.00;101759.94;6419792;23;20015;-80
2022/01/06 08:26:59;;;;;;;49.83;18.13;;;;;;;-0.94;100.00;101762.66;6433918;23;20009;-79
2022/01/06 09:55:17;;;;;;;29.20;8.38;;;;;;;3.46;97.52;101827.88;6436677;23;20021;-77
2022/01/06 09:58:18;;;;;;;21.60;8.93;;;;;;;3.81;98.16;101825.56;6411397;23;20017;-77
2022/01/06 10:04:38;;;;;;;23.92;6.53;;;;;;;4.55;93.59;101825.22;6435595;23;20398;-78
2022/01/06 10:14:46;;;;;;;17.52;5.75;;;;;;;5.59;93.12;101837.47;6316501;23;20015;-80
2022/01/06 10:17:30;;;;;;;19.13;6.85;;;;;;;5.70;88.52;101827.38;6316440;23;20011;-77
2022/01/06 10:20:14;;;;;;;16.08;5.75;;;;;;;5.70;86.70;101827.38;6309458;23;20445;-78
2022/01/06 10:22:49;;;;;;;15.93;6.20;;;;;;;5.69;82.89;101823.03;6309731;23;20117;-78
2022/01/06 12:45:06;;;;;;;13.93;3.78;;;;;;;9.51;60.86;101765.03;6370623;23;20459;-77
2022/01/06 16:06:43;;;;;;;23.33;6.30;;;;;;;4.23;77.64;101703.84;6404697;23;20495;-79
2022/01/06 16:09:15;;;;;;;19.97;5.77;;;;;;;4.17;78.03;101703.66;6403653;23;20029;-77
2022/01/06 16:11:46;;;;;;;19.33;5.50;;;;;;;4.15;78.06;101707.91;6404233;23;20010;-77
2022/01/06 16:14:17;;;;;;;24.70;6.27;;;;;;;4.12;78.90;101713.88;6404767;23;20010;-82
2022/01/06 16:16:51;;;;;;;21.40;6.70;;;;;;;4.07;79.10;101711.97;6403931;23;20020;-79
2022/01/06 16:19:23;;;;;;;25.40;5.88;;;;;;;4.05;79.59;101723.97;6404155;23;20423;-79
2022/01/06 16:21:55;;;;;;;20.10;6.63;;;;;;;4.06;79.77;101723.13;6403803;23;20013;-83
2022/01/06 16:24:26;;;;;;;22.73;6.30;;;;;;;3.97;80.27;101726.31;6404489;23;20108;-81
2022/01/06 16:26:58;;;;;;;21.23;6.27;;;;;;;4.03;80.58;101725.63;6404638;23;20096;-78
2022/01/06 16:29:30;;;;;;;23.93;6.93;;;;;;;3.94;80.06;101724.50;6404041;23;20392;-81
2022/01/06 16:32:23;;;;;;;21.30;6.75;;;;;;;3.86;79.95;101726.00;6405547;23;20274;-82
2022/01/06 16:34:54;;;;;;;22.00;6.03;;;;;;;3.82;79.87;101725.03;6404747;23;20343;-81
2022/01/06 16:37:26;;;;;;;21.33;6.57;;;;;;;3.68;79.53;101728.03;6378502;23;20244;-80
2022/01/06 16:39:57;;;;;;;21.73;5.37;;;;;;;3.64;79.98;101727.06;6378005;23;20009;-79
2022/01/06 16:42:29;;;;;;;22.80;5.30;;;;;;;3.60;79.87;101733.81;6404254;23;20082;-78
2022/01/06 16:45:01;;;;;;;25.03;6.00;;;;;;;3.56;79.90;101736.25;6403977;23;20005;-78
2022/01/06 16:47:33;;;;;;;21.67;6.40;;;;;;;3.52;79.97;101737.84;6404156;23;20248;-83
2022/01/06 16:50:05;;;;;;;21.47;7.67;;;;;;;3.37;80.22;101730.53;6402718;23;20083;-77
2022/01/06 16:52:39;;;;;;;24.23;8.75;;;;;;;3.41;80.35;101727.22;6405076;23;20013;-80
2022/01/06 16:55:12;;;;;;;21.30;7.03;;;;;;;3.35;80.05;101721.88;6410018;23;20040;-83
2022/01/06 16:57:44;;;;;;;22.35;7.20;;;;;;;3.29;80.39;101731.97;6411248;23;20427;-86
2022/01/06 17:00:16;;;;;;;22.73;6.35;;;;;;;3.19;80.57;101737.63;6415726;23;20005;-79
2022/01/06 17:02:51;;;;;;;22.43;8.37;;;;;;;3.17;80.15;101727.31;6422813;23;20020;-78
2022/01/06 17:05:22;;;;;;;20.83;5.53;;;;;;;3.25;80.37;101737.84;6423051;23;20037;-81
2022/01/06 17:07:55;;;;;;;19.80;6.13;;;;;;;3.16;80.37;101737.56;6418459;23;20005;-82
2022/01/06 17:10:27;;;;;;;;;;;;;;;3.16;80.29;101738.44;6416327;23;20076;-83
2022/01/06 17:12:58;;;;;;;23.25;6.07;;;;;;;3.00;80.69;101742.19;6412493;23;20216;-77
2022/01/06 17:15:31;;;;;;;25.17;6.77;;;;;;;2.99;80.98;101735.28;6409228;23;20020;-86
2022/01/06 17:18:05;;;;;;;;;;;;;;;3.00;81.00;101734.47;6410813;23;20006;-81
2022/01/06 17:20:37;;;;;;;23.10;7.15;;;;;;;2.82;81.50;101734.72;6407874;23;19932;-85
2022/01/06 17:23:08;;;;;;;23.27;7.13;;;;;;;2.90;81.50;101735.88;6409424;23;20005;-81
2022/01/06 17:25:41;;;;;;;22.00;7.20;;;;;;;2.87;81.97;101732.31;6410105;23;20327;-78
2022/01/06 17:28:12;;;;;;;;;;;;;;;2.92;81.49;101735.91;6408650;23;20017;-81
2022/01/06 17:30:45;;;;;;;21.00;7.15;;;;;;;2.70;81.95;101737.72;6408805;23;19917;-83
2022/01/06 17:33:16;;;;;;;22.20;6.40;;;;;;;2.83;82.59;101736.47;6410708;23;20483;-76
2022/01/06 17:35:48;;;;;;;24.47;7.83;;;;;;;2.82;82.69;101734.72;6410660;23;20020;-83
2022/01/06 17:38:19;;;;;;;22.00;6.87;;;;;;;2.87;82.41;101733.19;6410380;23;20009;-80
2022/01/06 17:40:50;;;;;;;17.87;6.83;;;;;;;2.90;82.42;101732.41;6408608;23;20006;-82
2022/01/06 17:43:22;;;;;;;22.30;8.43;;;;;;;2.89;82.79;101726.38;6408894;23;20428;-81
2022/01/06 17:45:54;;;;;;;31.60;8.37;;;;;;;2.87;83.02;101728.03;6408876;23;20014;-81
2022/01/06 17:48:25;;;;;;;28.03;9.33;;;;;;;2.79;83.35;101726.03;6410156;23;20012;-75
2022/01/06 17:51:00;;;;;;;24.57;8.60;;;;;;;2.88;83.54;101731.47;6410544;23;20010;-81
2022/01/06 17:53:31;;;;;;;25.60;8.95;;;;;;;2.84;83.55;101729.63;6409288;23;20515;-77
2022/01/06 17:56:05;;;;;;;29.52;9.32;;;;;;;2.85;84.07;101729.69;6376876;23;20056;-78
2022/01/06 17:58:37;;;;;;;28.38;10.15;;;;;;;2.77;84.17;101725.97;6377605;23;20034;-80
2022/01/06 18:01:08;;;;;;;36.23;11.43;;;;;;;2.76;84.74;101721.63;6377638;23;20077;-83
2022/01/06 18:03:40;;;;;;;31.80;10.70;;;;;;;2.75;84.70;101725.03;6378225;23;20384;-81
2022/01/06 18:06:14;;;;;;;27.70;11.80;;;;;;;2.69;84.86;101712.84;6378642;23;20010;-86
2022/01/06 18:11:20;;;;;;;30.07;9.83;;;;;;;2.63;85.61;101709.19;6391828;23;20048;-79
2022/01/06 18:13:58;;;;;;;30.30;10.07;;;;;;;2.65;85.74;101702.38;6380952;23;20010;-78
2022/01/06 18:16:30;;;;;;;30.50;12.40;;;;;;;2.60;86.04;101712.50;6381467;23;20037;-76
2022/01/06 18:19:04;;;;;;;38.73;12.67;;;;;;;2.62;86.39;101708.28;6384914;23;20002;-80
2022/01/06 18:21:35;;;;;;;32.70;12.27;;;;;;;2.57;86.29;101707.25;6382816;23;20084;-79
2022/01/06 18:24:08;;;;;;;37.30;13.27;;;;;;;2.55;86.76;101698.59;6380147;23;20041;-85
2022/01/06 18:26:40;;;;;;;46.38;14.07;;;;;;;2.55;86.72;101696.03;6375892;23;20009;-79
2022/01/06 18:29:11;;;;;;;38.78;13.57;;;;;;;2.50;86.75;101697.59;6375771;23;20270;-79
2022/01/06 18:31:43;;;;;;;36.33;12.63;;;;;;;2.47;87.41;101698.34;6374396;23;20006;-76
2022/01/06 18:34:15;;;;;;;39.03;13.67;;;;;;;2.45;87.61;101696.56;6373945;23;20013;-77
2022/01/06 18:36:46;;;;;;;34.47;13.53;;;;;;;2.45;87.57;101694.84;6378236;23;20042;-84
2022/01/06 18:39:19;;;;;;;52.83;15.73;;;;;;;2.45;87.66;101694.84;6379129;23;20708;-86
2022/01/06 18:41:50;;;;;;;;;;;;;;;2.48;87.68;101694.94;6351694;23;20014;-84
2022/01/06 18:44:22;;;;;;;40.03;13.60;;;;;;;2.45;87.87;101689.69;6376401;23;19920;-81
2022/01/06 18:46:53;;;;;;;39.10;14.83;;;;;;;2.40;88.00;101685.19;6375662;23;20379;-84
2022/01/06 18:49:25;;;;;;;38.57;14.60;;;;;;;2.40;88.17;101680.94;6376596;23;20010;-76
2022/01/06 18:51:56;;;;;;;44.70;15.17;;;;;;;2.37;88.39;101679.13;6376974;23;20010;-84
2022/01/06 18:54:28;;;;;;;44.17;16.60;;;;;;;2.37;88.33;101680.84;6376413;23;20034;-78
2022/01/06 18:57:00;;;;;;;37.00;14.35;;;;;;;2.38;88.27;101674.84;6380169;23;20317;-84
2022/01/06 18:59:31;;;;;;;37.23;16.73;;;;;;;2.37;88.66;101675.69;6376170;23;20182;-80
2022/01/06 19:02:03;;;;;;;38.03;15.57;;;;;;;2.33;88.67;101672.09;6375758;23;20014;-83
2022/01/06 19:04:36;;;;;;;38.60;15.23;;;;;;;2.34;88.49;101662.72;6374852;23;20041;-81
2022/01/06 19:07:07;;;;;;;;;;;;;;;2.33;88.37;101655.81;6378241;23;20002;-88
2022/01/06 19:09:40;;;;;;;33.00;14.13;;;;;;;2.31;88.53;101660.03;6377464;23;19940;-86
2022/01/06 19:12:12;;;;;;;36.72;15.75;;;;;;;2.29;88.63;101652.25;6376786;23;20012;-78
2022/01/06 19:14:43;;;;;;;37.23;15.43;;;;;;;2.30;88.53;101643.72;6349899;23;20352;-85
2022/01/06 19:17:15;;;;;;;30.93;13.73;;;;;;;2.26;88.64;101643.56;6376032;23;20375;-81
2022/01/06 19:19:47;;;;;;;40.13;14.20;;;;;;;2.25;88.77;101634.09;6375614;23;20328;-86
2022/01/06 19:22:18;;;;;;;35.63;13.75;;;;;;;2.23;88.59;101633.16;6376844;23;20010;-84
2022/01/06 19:24:50;;;;;;;32.33;13.40;;;;;;;2.19;88.96;101627.03;6376092;23;20017;-83
2022/01/06 19:27:21;;;;;;;29.53;14.77;;;;;;;2.17;88.88;101618.38;6376031;23;20029;-85